Time;durP1;ratioP1;P1;durP2;ratioP2;P2;SDS_P1;SDS_P2;PMS_P1;PMS_P2;Temp;Humidity;BMP_temperature;BMP_pressure;BME280_temperature;BME280_humidity;BME280_pressure;Samples;Min_cycle;Max_cycle;Signal;HPM_P1;HPM_P2
2021/07/12 00:00:40;;;;;;;2.53;2.43;;;;;;;;;;466751;254;27483;-73
2021/07/12 00:02:42;;;;;;;2.90;2.70;;;;;;;;;;466629;254;27477;-73
2021/07/12 00:04:45;;;;;;;2.80;2.60;;;;;;;;;;466745;254;27513;-73
2021/07/12 00:06:47;;;;;;;2.50;2.37;;;;;;;;;;466744;254;27507;-73
2021/07/12 00:08:49;;;;;;;2.33;2.23;;;;;;;;;;466763;254;27496;-73
2021/07/12 00:10:51;;;;;;;2.67;2.47;;;;;;;;;;466760;254;27492;-73
2021/07/12 00:12:53;;;;;;;2.10;2.00;;;;;;;;;;466742;254;27498;-73
2021/07/12 00:14:55;;;;;;;2.30;2.20;;;;;;;;;;466729;254;27586;-73
2021/07/12 00:16:57;;;;;;;2.37;2.27;;;;;;;;;;466762;254;27504;-73
2021/07/12 00:18:59;;;;;;;2.63;2.40;;;;;;;;;;466675;255;27585;-73
2021/07/12 00:21:01;;;;;;;2.70;2.43;;;;;;;;;;466759;254;27577;-73
2021/07/12 00:23:04;;;;;;;2.40;2.30;;;;;;;;;;466726;254;27481;-73
2021/07/12 00:25:06;;;;;;;3.00;2.80;;;;;;;;;;466759;250;27504;-73
2021/07/12 00:27:08;;;;;;;2.60;2.40;;;;;;;;;;466753;254;27589;-73
2021/07/12 00:29:10;;;;;;;2.47;2.37;;;;;;;;;;466721;254;27979;-73
2021/07/12 00:31:12;;;;;;;2.60;2.50;;;;;;;;;;466757;254;27546;-73
2021/07/12 00:33:14;;;;;;;2.80;2.60;;;;;;;;;;466761;254;27509;-73
2021/07/12 00:35:16;;;;;;;3.50;3.30;;;;;;;;;;466719;254;27594;-73
2021/07/12 00:37:18;;;;;;;2.60;2.50;;;;;;;;;;466771;255;27705;-73
2021/07/12 00:39:20;;;;;;;3.17;2.87;;;;;;;;;;466731;255;28635;-73
2021/07/12 00:41:23;;;;;;;3.30;2.60;;;;;;;;;;466714;254;27950;-73
2021/07/12 00:43:25;;;;;;;5.07;2.17;;;;;;;;;;466687;254;28915;-74
2021/07/12 00:45:27;;;;;;;2.67;2.47;;;;;;;;;;466708;254;29165;-73
2021/07/12 00:47:29;;;;;;;2.70;2.50;;;;;;;;;;466688;254;28925;-73
2021/07/12 00:49:31;;;;;;;2.97;2.77;;;;;;;;;;466680;254;28814;-73
2021/07/12 00:51:33;;;;;;;2.33;2.23;;;;;;;;;;466690;254;27655;-72
2021/07/12 00:53:35;;;;;;;2.30;2.20;;;;;;;;;;466699;254;27685;-74
2021/07/12 00:55:37;;;;;;;2.57;2.47;;;;;;;;;;466684;254;28048;-72
2021/07/12 00:57:39;;;;;;;2.67;2.47;;;;;;;;;;466684;254;27661;-73
2021/07/12 00:59:42;;;;;;;2.10;2.00;;;;;;;;;;466627;254;27754;-74
2021/07/12 01:01:44;;;;;;;2.83;2.63;;;;;;;;;;466546;254;27672;-73
2021/07/12 01:03:46;;;;;;;2.43;2.30;;;;;;;;;;466668;254;28080;-72
2021/07/12 01:05:48;;;;;;;2.30;2.20;;;;;;;;;;466614;254;29045;-72
2021/07/12 01:07:50;;;;;;;3.30;2.43;;;;;;;;;;466678;254;28129;-74
2021/07/12 01:09:52;;;;;;;2.80;2.60;;;;;;;;;;466665;254;27709;-73
2021/07/12 01:11:54;;;;;;;2.90;2.70;;;;;;;;;;466670;254;28965;-72
2021/07/12 01:13:56;;;;;;;2.70;2.50;;;;;;;;;;466674;254;27606;-73
2021/07/12 01:15:59;;;;;;;2.70;2.50;;;;;;;;;;466656;254;28879;-74
2021/07/12 01:18:01;;;;;;;2.87;2.67;;;;;;;;;;466688;254;27970;-73
2021/07/12 01:20:07;;;;;;;3.07;2.87;;;;;;;;;;466535;254;28574;-73
2021/07/12 01:22:05;;;;;;;2.73;2.53;;;;;;;;;;466404;255;28531;-73
2021/07/12 01:24:07;;;;;;;2.63;2.43;;;;;;;;;;466675;254;28757;-73
2021/07/12 01:26:09;;;;;;;2.57;2.37;;;;;;;;;;466673;254;28787;-73
2021/07/12 01:28:11;;;;;;;2.33;2.20;;;;;;;;;;466693;254;28551;-73
2021/07/12 01:30:13;;;;;;;2.10;2.00;;;;;;;;;;466660;254;28668;-73
2021/07/12 01:32:15;;;;;;;2.90;2.53;;;;;;;;;;466665;254;28084;-72
2021/07/12 01:34:18;;;;;;;2.20;2.10;;;;;;;;;;466675;254;27734;-72
2021/07/12 01:36:20;;;;;;;2.60;2.50;;;;;;;;;;466641;254;28026;-74
2021/07/12 01:38:22;;;;;;;2.30;2.20;;;;;;;;;;466658;254;27721;-74
2021/07/12 01:40:24;;;;;;;2.30;2.10;;;;;;;;;;466672;254;28939;-74
2021/07/12 01:42:26;;;;;;;2.37;2.27;;;;;;;;;;466696;254;28517;-73
2021/07/12 01:44:28;;;;;;;2.70;2.50;;;;;;;;;;466659;254;28968;-74
2021/07/12 01:46:30;;;;;;;3.33;2.60;;;;;;;;;;466690;254;28811;-73
2021/07/12 01:48:32;;;;;;;3.00;2.80;;;;;;;;;;466651;254;28915;-73
2021/07/12 01:50:35;;;;;;;2.50;2.40;;;;;;;;;;466675;254;28742;-74
2021/07/12 01:52:37;;;;;;;2.67;2.47;;;;;;;;;;466687;254;28673;-73
2021/07/12 01:54:39;;;;;;;2.63;2.43;;;;;;;;;;466666;254;28598;-74
2021/07/12 01:56:41;;;;;;;2.27;2.17;;;;;;;;;;466673;254;29225;-73
2021/07/12 01:58:43;;;;;;;2.70;2.50;;;;;;;;;;466667;254;28177;-73
2021/07/12 02:00:45;;;;;;;2.30;2.20;;;;;;;;;;466669;254;28643;-74
2021/07/12 02:02:47;;;;;;;2.10;2.00;;;;;;;;;;466673;254;28044;-74
2021/07/12 02:04:50;;;;;;;2.70;2.50;;;;;;;;;;466651;254;28522;-74
2021/07/12 02:06:52;;;;;;;2.43;2.33;;;;;;;;;;466629;254;28097;-74
2021/07/12 02:08:54;;;;;;;2.53;2.43;;;;;;;;;;466674;254;28606;-73
2021/07/12 02:10:56;;;;;;;2.53;2.43;;;;;;;;;;466687;254;28125;-73
2021/07/12 02:12:58;;;;;;;2.80;2.60;;;;;;;;;;466698;254;28917;-73
2021/07/12 02:15:00;;;;;;;2.53;2.37;;;;;;;;;;466672;254;29040;-73
2021/07/12 02:17:02;;;;;;;2.70;2.50;;;;;;;;;;466686;254;28060;-73
2021/07/12 02:19:04;;;;;;;2.57;2.47;;;;;;;;;;466663;254;29140;-73
2021/07/12 02:21:07;;;;;;;2.87;2.67;;;;;;;;;;466684;254;27610;-73
2021/07/12 02:23:08;;;;;;;2.63;2.47;;;;;;;;;;466661;254;28917;-73
2021/07/12 02:25:11;;;;;;;2.20;2.10;;;;;;;;;;466674;254;28089;-73
2021/07/12 02:27:13;;;;;;;2.30;2.20;;;;;;;;;;466670;254;28781;-73
2021/07/12 02:29:15;;;;;;;2.30;2.20;;;;;;;;;;466664;254;29011;-73
2021/07/12 02:31:17;;;;;;;2.37;2.27;;;;;;;;;;466667;254;28148;-73
2021/07/12 02:33:19;;;;;;;2.43;2.23;;;;;;;;;;466655;254;28986;-73
2021/07/12 02:35:21;;;;;;;2.37;2.27;;;;;;;;;;466663;254;27779;-73
2021/07/12 02:37:23;;;;;;;3.00;2.80;;;;;;;;;;466651;254;29471;-73
2021/07/12 02:39:25;;;;;;;2.57;2.37;;;;;;;;;;466640;254;28079;-73
2021/07/12 02:41:28;;;;;;;2.93;2.70;;;;;;;;;;466661;254;29207;-73
2021/07/12 02:43:30;;;;;;;2.60;2.50;;;;;;;;;;466669;254;28550;-73
2021/07/12 02:45:32;;;;;;;2.93;2.73;;;;;;;;;;466664;254;28977;-73
2021/07/12 02:47:34;;;;;;;4.90;2.67;;;;;;;;;;466616;254;28646;-73
2021/07/12 02:49:36;;;;;;;2.03;1.93;;;;;;;;;;470837;233;28416;-73
2021/07/12 02:51:38;;;;;;;2.47;2.37;;;;;;;;;;486929;244;28020;-73
2021/07/12 02:53:40;;;;;;;2.53;2.33;;;;;;;;;;486893;244;28856;-73
2021/07/12 02:55:42;;;;;;;2.60;2.40;;;;;;;;;;486911;244;29152;-73
2021/07/12 02:57:45;;;;;;;2.43;2.33;;;;;;;;;;486906;244;28615;-73
2021/07/12 02:59:47;;;;;;;2.50;2.40;;;;;;;;;;486923;244;27944;-73
2021/07/12 03:01:49;;;;;;;2.87;2.67;;;;;;;;;;486937;244;28066;-73
2021/07/12 03:03:51;;;;;;;2.53;2.33;;;;;;;;;;486944;244;28892;-73
2021/07/12 03:05:53;;;;;;;2.30;2.20;;;;;;;;;;486914;244;29347;-73
2021/07/12 03:07:55;;;;;;;2.80;2.60;;;;;;;;;;486912;244;28452;-73
2021/07/12 03:09:57;;;;;;;2.23;2.13;;;;;;;;;;486906;244;28963;-73
2021/07/12 03:11:59;;;;;;;3.00;2.70;;;;;;;;;;486921;244;28561;-73
2021/07/12 03:14:02;;;;;;;2.67;2.47;;;;;;;;;;486912;244;28168;-73
2021/07/12 03:16:04;;;;;;;2.50;2.30;;;;;;;;;;486907;244;28264;-73
2021/07/12 03:18:06;;;;;;;2.63;2.30;;;;;;;;;;486931;244;28356;-73
2021/07/12 03:20:08;;;;;;;3.10;2.90;;;;;;;;;;488814;236;28376;-73
2021/07/12 03:22:10;;;;;;;2.33;2.23;;;;;;;;;;481478;245;28819;-73
2021/07/12 03:24:12;;;;;;;2.80;2.60;;;;;;;;;;481415;247;28931;-73
2021/07/12 03:26:14;;;;;;;2.20;2.10;;;;;;;;;;481494;247;28335;-73
2021/07/12 03:28:16;;;;;;;2.60;2.40;;;;;;;;;;481365;247;28852;-73
2021/07/12 03:30:19;;;;;;;2.83;2.63;;;;;;;;;;477485;239;28582;-73
2021/07/12 03:32:22;;;;;;;2.57;2.40;;;;;;;;;;474983;249;28238;-73
2021/07/12 03:34:23;;;;;;;2.87;2.67;;;;;;;;;;475028;248;28399;-73
2021/07/12 03:36:26;;;;;;;4.47;3.10;;;;;;;;;;475009;250;28583;-73
2021/07/12 03:38:28;;;;;;;2.80;2.60;;;;;;;;;;474979;250;28931;-73
2021/07/12 03:40:30;;;;;;;3.07;2.77;;;;;;;;;;476534;243;28386;-73
2021/07/12 03:42:34;;;;;;;2.80;2.60;;;;;;;;;;480178;247;28997;-73
2021/07/12 03:44:34;;;;;;;7.43;2.80;;;;;;;;;;480060;248;28217;-73
2021/07/12 03:46:37;;;;;;;2.67;2.47;;;;;;;;;;480176;247;28341;-73
2021/07/12 03:48:39;;;;;;;3.27;3.00;;;;;;;;;;480197;247;28801;-73
2021/07/12 03:50:41;;;;;;;5.70;2.80;;;;;;;;;;480148;247;28732;-73
2021/07/12 03:52:43;;;;;;;3.00;2.80;;;;;;;;;;480152;247;28655;-73
2021/07/12 03:54:45;;;;;;;3.10;2.90;;;;;;;;;;480184;247;28509;-73
2021/07/12 03:56:47;;;;;;;2.90;2.70;;;;;;;;;;480166;247;28210;-73
2021/07/12 03:58:49;;;;;;;2.97;2.77;;;;;;;;;;480084;247;28742;-73
2021/07/12 04:00:51;;;;;;;2.80;2.60;;;;;;;;;;480115;247;28281;-73
2021/07/12 04:02:54;;;;;;;2.70;2.50;;;;;;;;;;480078;247;28624;-73
2021/07/12 04:04:56;;;;;;;3.43;3.03;;;;;;;;;;480119;247;28266;-73
2021/07/12 04:06:58;;;;;;;2.63;2.43;;;;;;;;;;480146;247;28933;-74
2021/07/12 04:09:00;;;;;;;2.90;2.70;;;;;;;;;;480156;247;28792;-73
2021/07/12 04:11:02;;;;;;;3.40;3.10;;;;;;;;;;480145;247;28335;-73
2021/07/12 04:13:04;;;;;;;3.10;2.90;;;;;;;;;;480123;248;28594;-73
2021/07/12 04:15:06;;;;;;;2.70;2.50;;;;;;;;;;480149;247;27534;-73
2021/07/12 04:17:08;;;;;;;2.90;2.70;;;;;;;;;;480160;247;28933;-73
2021/07/12 04:19:10;;;;;;;2.97;2.77;;;;;;;;;;480206;247;28466;-74
2021/07/12 04:21:13;;;;;;;2.73;2.50;;;;;;;;;;480209;247;28456;-74
2021/07/12 04:23:15;;;;;;;3.17;2.97;;;;;;;;;;480204;247;27904;-74
2021/07/12 04:25:17;;;;;;;2.97;2.77;;;;;;;;;;480188;247;28097;-73
2021/07/12 04:27:19;;;;;;;3.20;3.00;;;;;;;;;;480154;247;27545;-73
2021/07/12 04:29:21;;;;;;;2.70;2.50;;;;;;;;;;480195;247;27530;-73
2021/07/12 04:31:23;;;;;;;2.87;2.67;;;;;;;;;;480198;247;27485;-74
2021/07/12 04:33:26;;;;;;;2.47;2.27;;;;;;;;;;480184;247;27503;-74
2021/07/12 04:35:27;;;;;;;2.60;2.43;;;;;;;;;;480135;248;27522;-73
2021/07/12 04:37:30;;;;;;;2.73;2.53;;;;;;;;;;480205;247;27382;-74
2021/07/12 04:39:32;;;;;;;2.87;2.67;;;;;;;;;;480159;247;27500;-73
2021/07/12 04:41:34;;;;;;;2.70;2.50;;;;;;;;;;480221;247;27755;-74
2021/07/12 04:43:36;;;;;;;2.73;2.53;;;;;;;;;;480159;247;27515;-73
2021/07/12 04:45:38;;;;;;;2.60;2.40;;;;;;;;;;480169;247;27473;-73
2021/07/12 04:47:40;;;;;;;2.27;2.17;;;;;;;;;;480188;247;27424;-73
2021/07/12 04:49:42;;;;;;;2.40;2.30;;;;;;;;;;480165;247;27453;-73
2021/07/12 04:51:44;;;;;;;2.23;2.13;;;;;;;;;;480198;247;27404;-74
2021/07/12 04:53:46;;;;;;;3.10;2.90;;;;;;;;;;480170;244;27386;-73
2021/07/12 04:55:49;;;;;;;4.30;2.40;;;;;;;;;;480176;247;27435;-73
2021/07/12 04:57:51;;;;;;;2.50;2.30;;;;;;;;;;480179;247;27421;-73
2021/07/12 04:59:53;;;;;;;2.90;2.70;;;;;;;;;;480173;247;27473;-74
2021/07/12 05:01:55;;;;;;;2.70;2.50;;;;;;;;;;480170;247;27398;-73
2021/07/12 05:03:57;;;;;;;3.00;2.80;;;;;;;;;;480198;247;27390;-74
2021/07/12 05:05:59;;;;;;;2.37;2.27;;;;;;;;;;480129;247;27929;-73
2021/07/12 05:08:01;;;;;;;2.60;2.40;;;;;;;;;;480189;247;27444;-74
2021/07/12 05:10:04;;;;;;;2.73;2.53;;;;;;;;;;480176;247;27541;-74
2021/07/12 05:12:09;;;;;;;2.50;2.40;;;;;;;;;;480171;247;27432;-73
2021/07/12 05:14:08;;;;;;;3.53;2.43;;;;;;;;;;479663;247;27504;-74
2021/07/12 05:16:10;;;;;;;3.17;2.97;;;;;;;;;;480178;247;27493;-74
2021/07/12 05:18:12;;;;;;;3.03;2.73;;;;;;;;;;480141;247;27421;-74
2021/07/12 05:20:14;;;;;;;4.10;2.70;;;;;;;;;;480172;247;27429;-74
2021/07/12 05:22:16;;;;;;;3.20;2.90;;;;;;;;;;480187;247;27485;-74
2021/07/12 05:24:18;;;;;;;3.00;2.80;;;;;;;;;;480181;247;27433;-74
2021/07/12 05:26:20;;;;;;;4.00;3.60;;;;;;;;;;480198;247;27465;-74
2021/07/12 05:28:22;;;;;;;4.20;3.67;;;;;;;;;;480166;247;27553;-74
2021/07/12 05:30:24;;;;;;;3.90;3.60;;;;;;;;;;480169;247;27412;-74
2021/07/12 05:32:27;;;;;;;4.10;3.80;;;;;;;;;;480179;247;27536;-74
2021/07/12 05:34:29;;;;;;;3.60;3.37;;;;;;;;;;480190;247;27517;-74
2021/07/12 05:36:31;;;;;;;3.70;3.40;;;;;;;;;;480157;247;27455;-73
2021/07/12 05:38:33;;;;;;;3.10;2.90;;;;;;;;;;480147;247;27421;-74
2021/07/12 05:40:35;;;;;;;3.83;3.57;;;;;;;;;;480177;247;27497;-74
2021/07/12 05:42:37;;;;;;;3.93;3.63;;;;;;;;;;480081;247;27406;-74
2021/07/12 05:44:39;;;;;;;3.27;3.07;;;;;;;;;;480065;247;27460;-74
2021/07/12 05:46:41;;;;;;;3.40;3.20;;;;;;;;;;480023;247;27514;-74
2021/07/12 05:48:44;;;;;;;8.40;3.70;;;;;;;;;;479772;247;27491;-74
2021/07/12 05:50:46;;;;;;;3.50;3.20;;;;;;;;;;479969;247;27956;-75
2021/07/12 05:52:48;;;;;;;4.00;3.70;;;;;;;;;;479979;247;27389;-75
2021/07/12 05:54:50;;;;;;;3.70;3.50;;;;;;;;;;480095;247;27856;-74
2021/07/12 05:56:52;;;;;;;3.60;3.40;;;;;;;;;;480155;247;27486;-75
2021/07/12 05:58:54;;;;;;;4.00;3.70;;;;;;;;;;480149;247;27841;-74
2021/07/12 06:00:56;;;;;;;3.70;3.40;;;;;;;;;;480141;247;27421;-75
2021/07/12 06:02:58;;;;;;;3.97;3.67;;;;;;;;;;480191;247;27864;-74
2021/07/12 06:05:00;;;;;;;3.50;3.30;;;;;;;;;;480183;247;27418;-74
2021/07/12 06:07:03;;;;;;;2.67;2.57;;;;;;;;;;480176;247;27845;-74
2021/07/12 06:09:05;;;;;;;3.73;3.37;;;;;;;;;;480168;247;27390;-75
2021/07/12 06:11:09;;;;;;;3.60;3.37;;;;;;;;;;480161;247;27906;-74
2021/07/12 06:13:09;;;;;;;3.50;3.27;;;;;;;;;;480005;243;27512;-75
2021/07/12 06:15:11;;;;;;;3.30;3.00;;;;;;;;;;480142;247;27910;-74
2021/07/12 06:17:13;;;;;;;3.57;3.37;;;;;;;;;;480166;247;27477;-74
2021/07/12 06:19:15;;;;;;;3.33;3.13;;;;;;;;;;480190;247;27954;-74
2021/07/12 06:21:17;;;;;;;3.13;2.93;;;;;;;;;;480155;247;27420;-74
2021/07/12 06:23:19;;;;;;;3.20;3.00;;;;;;;;;;480165;247;27924;-74
2021/07/12 06:25:22;;;;;;;3.33;3.13;;;;;;;;;;480183;247;27493;-74
2021/07/12 06:27:24;;;;;;;3.20;3.00;;;;;;;;;;480159;247;27518;-74
2021/07/12 06:29:26;;;;;;;3.50;3.20;;;;;;;;;;480169;247;27492;-72
2021/07/12 06:31:28;;;;;;;3.30;3.10;;;;;;;;;;480151;247;27501;-75
2021/07/12 06:33:30;;;;;;;3.87;3.57;;;;;;;;;;480171;247;27460;-74
2021/07/12 06:35:33;;;;;;;4.30;2.90;;;;;;;;;;480149;247;27479;-74
2021/07/12 06:37:34;;;;;;;3.00;2.80;;;;;;;;;;479014;242;27493;-74
2021/07/12 06:39:36;;;;;;;3.50;3.20;;;;;;;;;;477544;249;27418;-74
2021/07/12 06:41:38;;;;;;;3.23;3.03;;;;;;;;;;477535;249;27499;-74
2021/07/12 06:43:41;;;;;;;3.17;2.97;;;;;;;;;;481615;246;27531;-74
2021/07/12 06:45:43;;;;;;;3.00;2.80;;;;;;;;;;483768;245;27418;-74
2021/07/12 06:47:46;;;;;;;4.03;2.80;;;;;;;;;;483726;245;27398;-74
2021/07/12 06:49:48;;;;;;;3.33;3.13;;;;;;;;;;483760;245;28025;-73
2021/07/12 06:51:50;;;;;;;3.50;3.30;;;;;;;;;;483744;245;27429;-74
2021/07/12 06:53:52;;;;;;;3.83;3.53;;;;;;;;;;483774;245;27985;-74
2021/07/12 06:55:54;;;;;;;3.70;3.40;;;;;;;;;;483764;245;27429;-74
2021/07/12 06:57:57;;;;;;;3.50;3.30;;;;;;;;;;483780;245;27916;-74
2021/07/12 06:59:59;;;;;;;3.43;3.23;;;;;;;;;;483750;246;27531;-74
2021/07/12 07:02:01;;;;;;;3.60;3.40;;;;;;;;;;483786;245;27991;-74
2021/07/12 07:04:03;;;;;;;3.10;2.90;;;;;;;;;;483744;245;27441;-74
2021/07/12 07:06:05;;;;;;;3.60;3.30;;;;;;;;;;483758;245;27980;-74
2021/07/12 07:08:07;;;;;;;3.70;3.50;;;;;;;;;;483780;245;27514;-74
2021/07/12 07:10:09;;;;;;;3.20;2.90;;;;;;;;;;483789;245;27923;-74
2021/07/12 07:12:11;;;;;;;3.50;3.30;;;;;;;;;;483748;245;27532;-74
2021/07/12 07:14:13;;;;;;;3.40;3.20;;;;;;;;;;483781;245;27876;-74
2021/07/12 07:16:16;;;;;;;3.70;3.40;;;;;;;;;;483740;245;27417;-75
2021/07/12 07:18:18;;;;;;;3.47;3.17;;;;;;;;;;483791;245;27886;-74
2021/07/12 07:20:20;;;;;;;3.57;2.90;;;;;;;;;;483790;245;27450;-74
2021/07/12 07:22:22;;;;;;;3.53;3.23;;;;;;;;;;483793;245;27886;-74
2021/07/12 07:24:24;;;;;;;3.20;3.00;;;;;;;;;;483816;245;27414;-74
2021/07/12 07:26:26;;;;;;;2.93;2.80;;;;;;;;;;483770;245;27968;-74
2021/07/12 07:28:28;;;;;;;2.80;2.70;;;;;;;;;;483793;245;27410;-74
2021/07/12 07:30:30;;;;;;;3.00;2.80;;;;;;;;;;483763;245;27434;-75
2021/07/12 07:32:33;;;;;;;3.00;2.50;;;;;;;;;;483712;245;27974;-74
2021/07/12 07:34:35;;;;;;;7.60;3.20;;;;;;;;;;483754;245;27489;-74
2021/07/12 07:36:38;;;;;;;3.10;2.90;;;;;;;;;;483761;245;27997;-74
2021/07/12 07:38:39;;;;;;;3.10;2.90;;;;;;;;;;483690;246;27485;-74
2021/07/12 07:40:41;;;;;;;3.20;3.00;;;;;;;;;;483763;245;28021;-74
2021/07/12 07:42:43;;;;;;;3.20;3.00;;;;;;;;;;483762;245;27410;-75
2021/07/12 07:44:45;;;;;;;3.40;3.00;;;;;;;;;;483763;245;27977;-74
2021/07/12 07:46:47;;;;;;;3.10;2.90;;;;;;;;;;483754;242;27456;-74
2021/07/12 07:48:49;;;;;;;3.23;3.03;;;;;;;;;;483783;245;28616;-74
2021/07/12 07:50:52;;;;;;;3.33;3.13;;;;;;;;;;483749;245;27421;-74
2021/07/12 07:52:55;;;;;;;2.80;2.70;;;;;;;;;;484415;242;27935;-75
2021/07/12 07:54:57;;;;;;;3.37;3.13;;;;;;;;;;483397;245;27840;-74
2021/07/12 07:56:59;;;;;;;7.23;2.63;;;;;;;;;;483429;245;27354;-74
2021/07/12 07:59:01;;;;;;;2.50;2.30;;;;;;;;;;483478;245;27932;-74
2021/07/12 08:01:03;;;;;;;3.80;2.50;;;;;;;;;;483393;245;27363;-74
2021/07/12 08:03:05;;;;;;;2.50;2.30;;;;;;;;;;483406;245;27968;-74
2021/07/12 08:05:07;;;;;;;2.60;2.50;;;;;;;;;;490196;241;27520;-74
2021/07/12 08:07:09;;;;;;;2.40;2.30;;;;;;;;;;491797;241;27994;-75
2021/07/12 08:09:12;;;;;;;2.60;2.40;;;;;;;;;;483871;242;27927;-74
2021/07/12 08:11:14;;;;;;;2.40;2.30;;;;;;;;;;483696;245;27419;-74
2021/07/12 08:13:16;;;;;;;2.47;2.37;;;;;;;;;;483784;245;27869;-74
2021/07/12 08:15:18;;;;;;;2.57;2.40;;;;;;;;;;483784;245;27398;-74
2021/07/12 08:17:20;;;;;;;2.53;2.37;;;;;;;;;;484480;243;27964;-74
2021/07/12 08:19:22;;;;;;;2.37;2.27;;;;;;;;;;489266;242;27492;-74
2021/07/12 08:21:24;;;;;;;2.47;2.37;;;;;;;;;;489256;242;28167;-74
2021/07/12 08:23:26;;;;;;;2.50;2.30;;;;;;;;;;489265;243;27527;-73
2021/07/12 08:25:29;;;;;;;2.37;2.27;;;;;;;;;;489233;242;27994;-74
2021/07/12 08:27:32;;;;;;;2.37;2.23;;;;;;;;;;489252;242;27520;-74
2021/07/12 08:29:33;;;;;;;2.43;2.23;;;;;;;;;;487562;236;28102;-72
2021/07/12 08:31:35;;;;;;;2.50;2.40;;;;;;;;;;476936;249;27638;-72
2021/07/12 08:33:37;;;;;;;3.27;2.20;;;;;;;;;;476948;248;27982;-74
2021/07/12 08:35:39;;;;;;;2.50;2.40;;;;;;;;;;476955;248;27510;-74
2021/07/12 08:37:41;;;;;;;2.23;2.13;;;;;;;;;;476939;248;28069;-74
2021/07/12 08:39:43;;;;;;;3.20;2.50;;;;;;;;;;470223;253;27559;-74
2021/07/12 08:41:46;;;;;;;2.70;2.50;;;;;;;;;;476977;249;28053;-74
2021/07/12 08:43:48;;;;;;;2.47;2.27;;;;;;;;;;476967;248;27609;-74
2021/07/12 08:45:50;;;;;;;3.20;2.23;;;;;;;;;;477526;248;28004;-74
2021/07/12 08:47:52;;;;;;;2.60;2.40;;;;;;;;;;470258;252;27592;-74
2021/07/12 08:49:54;;;;;;;2.00;1.90;;;;;;;;;;476922;249;27957;-74
2021/07/12 08:51:56;;;;;;;2.70;2.50;;;;;;;;;;476945;248;27508;-74
2021/07/12 08:53:58;;;;;;;2.90;2.70;;;;;;;;;;476926;248;28014;-75
2021/07/12 08:56:00;;;;;;;3.10;2.90;;;;;;;;;;477447;248;27509;-74
2021/07/12 08:58:03;;;;;;;2.97;2.40;;;;;;;;;;470212;251;27620;-74
2021/07/12 09:00:05;;;;;;;2.50;2.30;;;;;;;;;;476334;242;27974;-74
2021/07/12 09:02:07;;;;;;;2.63;2.43;;;;;;;;;;468386;254;27535;-74
2021/07/12 09:04:09;;;;;;;2.60;2.40;;;;;;;;;;472694;251;27933;-74
2021/07/12 09:06:11;;;;;;;3.53;2.77;;;;;;;;;;468523;250;27552;-74
2021/07/12 09:08:13;;;;;;;2.23;2.13;;;;;;;;;;482730;245;27969;-74
2021/07/12 09:10:15;;;;;;;2.60;2.43;;;;;;;;;;482710;246;27389;-74
2021/07/12 09:12:17;;;;;;;2.17;2.07;;;;;;;;;;482718;246;27963;-74
2021/07/12 09:14:19;;;;;;;2.20;2.10;;;;;;;;;;482723;246;27469;-74
2021/07/12 09:16:22;;;;;;;2.20;2.00;;;;;;;;;;482703;246;28603;-74
2021/07/12 09:18:24;;;;;;;2.30;2.00;;;;;;;;;;482704;246;27436;-74
2021/07/12 09:20:26;;;;;;;1.90;1.80;;;;;;;;;;482709;246;27962;-74
2021/07/12 09:22:28;;;;;;;2.00;1.90;;;;;;;;;;482717;246;27427;-74
2021/07/12 09:24:30;;;;;;;2.70;2.00;;;;;;;;;;482707;246;27920;-74
2021/07/12 09:26:32;;;;;;;2.00;1.90;;;;;;;;;;482576;246;27434;-74
2021/07/12 09:28:34;;;;;;;2.07;1.97;;;;;;;;;;482657;246;27959;-74
2021/07/12 09:30:36;;;;;;;2.23;2.13;;;;;;;;;;482721;246;27505;-75
2021/07/12 09:32:39;;;;;;;2.23;2.13;;;;;;;;;;482737;246;27922;-74
2021/07/12 09:34:41;;;;;;;1.90;1.80;;;;;;;;;;482681;246;27434;-74
2021/07/12 09:36:43;;;;;;;2.60;2.40;;;;;;;;;;482724;246;28089;-74
2021/07/12 09:38:45;;;;;;;2.53;2.13;;;;;;;;;;482718;244;27514;-74
2021/07/12 09:40:47;;;;;;;2.47;2.30;;;;;;;;;;482719;246;27969;-74
2021/07/12 09:42:49;;;;;;;3.70;2.53;;;;;;;;;;482710;246;27432;-74
2021/07/12 09:44:51;;;;;;;2.87;2.67;;;;;;;;;;482720;246;28020;-74
2021/07/12 09:46:53;;;;;;;2.97;2.67;;;;;;;;;;482714;244;27505;-74
2021/07/12 09:48:55;;;;;;;2.70;2.50;;;;;;;;;;482714;246;27877;-74
2021/07/12 09:50:58;;;;;;;2.60;2.40;;;;;;;;;;482736;246;27493;-74
2021/07/12 09:53:00;;;;;;;2.70;2.50;;;;;;;;;;482737;246;27954;-74
2021/07/12 09:55:02;;;;;;;3.33;2.80;;;;;;;;;;482683;246;27442;-74
2021/07/12 09:57:04;;;;;;;3.33;2.50;;;;;;;;;;482722;246;27900;-74
2021/07/12 09:59:06;;;;;;;3.60;2.87;;;;;;;;;;482731;246;27513;-74
2021/07/12 10:01:08;;;;;;;2.30;2.20;;;;;;;;;;482743;244;27842;-74
2021/07/12 10:03:10;;;;;;;2.77;2.57;;;;;;;;;;482742;246;27409;-74
2021/07/12 10:05:13;;;;;;;2.37;2.17;;;;;;;;;;482751;246;27492;-74
2021/07/12 10:07:14;;;;;;;2.20;2.10;;;;;;;;;;482679;246;27414;-74
2021/07/12 10:09:16;;;;;;;2.70;2.50;;;;;;;;;;482697;246;27394;-74
2021/07/12 10:11:19;;;;;;;2.50;2.40;;;;;;;;;;482572;246;27513;-74
2021/07/12 10:13:21;;;;;;;2.57;2.40;;;;;;;;;;482527;246;27727;-74
2021/07/12 10:15:23;;;;;;;2.27;2.07;;;;;;;;;;482581;246;27528;-74
2021/07/12 10:17:25;;;;;;;2.23;2.10;;;;;;;;;;482417;246;27695;-74
2021/07/12 10:19:27;;;;;;;2.67;2.47;;;;;;;;;;482730;243;27444;-75
2021/07/12 10:21:29;;;;;;;3.00;2.10;;;;;;;;;;482756;246;27438;-75
2021/07/12 10:23:31;;;;;;;2.83;2.60;;;;;;;;;;482721;246;27453;-75
2021/07/12 10:25:33;;;;;;;4.17;2.80;;;;;;;;;;482692;246;27533;-74
2021/07/12 10:27:36;;;;;;;2.73;2.53;;;;;;;;;;482680;246;27438;-74
2021/07/12 10:29:38;;;;;;;2.63;2.10;;;;;;;;;;482730;246;27449;-74
2021/07/12 10:31:40;;;;;;;2.20;2.10;;;;;;;;;;482714;246;27525;-74
2021/07/12 10:33:42;;;;;;;2.40;2.20;;;;;;;;;;482719;246;27461;-74
2021/07/12 10:35:44;;;;;;;2.80;2.60;;;;;;;;;;482700;246;27432;-74
2021/07/12 10:37:46;;;;;;;3.00;2.60;;;;;;;;;;482692;246;27510;-75
2021/07/12 10:39:48;;;;;;;2.90;2.67;;;;;;;;;;482728;246;27449;-75
2021/07/12 10:41:50;;;;;;;2.63;2.43;;;;;;;;;;482687;246;27442;-74
2021/07/12 10:43:52;;;;;;;2.40;2.20;;;;;;;;;;482494;245;27441;-74
2021/07/12 10:45:55;;;;;;;2.47;2.27;;;;;;;;;;482680;246;27442;-74
2021/07/12 10:47:57;;;;;;;2.73;2.53;;;;;;;;;;482698;246;27457;-74
2021/07/12 10:49:59;;;;;;;2.20;2.10;;;;;;;;;;482677;246;27418;-74
2021/07/12 10:52:02;;;;;;;2.53;2.33;;;;;;;;;;482617;246;27455;-74
2021/07/12 10:54:03;;;;;;;2.70;2.50;;;;;;;;;;482408;246;27410;-74
2021/07/12 10:56:07;;;;;;;2.87;2.67;;;;;;;;;;484610;245;27448;-74
2021/07/12 10:58:07;;;;;;;2.70;2.50;;;;;;;;;;484622;245;27516;-74
2021/07/12 11:00:09;;;;;;;2.80;2.30;;;;;;;;;;484696;245;27540;-74
2021/07/12 11:02:11;;;;;;;2.63;2.43;;;;;;;;;;485151;245;27548;-74
2021/07/12 11:04:14;;;;;;;2.37;2.17;;;;;;;;;;485688;244;27551;-74
2021/07/12 11:06:16;;;;;;;2.27;2.10;;;;;;;;;;485663;244;27556;-74
2021/07/12 11:08:18;;;;;;;2.53;2.33;;;;;;;;;;485676;244;27578;-74
2021/07/12 11:10:20;;;;;;;2.57;2.37;;;;;;;;;;485690;244;27494;-74
2021/07/12 11:12:22;;;;;;;2.30;2.20;;;;;;;;;;485656;244;27578;-74
2021/07/12 11:14:24;;;;;;;2.30;2.20;;;;;;;;;;485680;244;27647;-74
2021/07/12 11:16:26;;;;;;;2.30;2.10;;;;;;;;;;485689;244;27628;-75
2021/07/12 11:18:28;;;;;;;1.97;1.87;;;;;;;;;;485694;244;27592;-74
2021/07/12 11:20:30;;;;;;;2.20;2.10;;;;;;;;;;485409;244;28015;-74
2021/07/12 11:22:33;;;;;;;2.37;2.27;;;;;;;;;;485619;244;27678;-74
2021/07/12 11:24:35;;;;;;;3.30;3.03;;;;;;;;;;485442;244;27579;-74
2021/07/12 11:26:38;;;;;;;2.60;2.40;;;;;;;;;;485664;245;27574;-74
2021/07/12 11:28:39;;;;;;;2.37;2.27;;;;;;;;;;485631;244;27583;-75
2021/07/12 11:30:41;;;;;;;3.10;2.80;;;;;;;;;;485693;244;27679;-74
2021/07/12 11:32:44;;;;;;;2.47;2.37;;;;;;;;;;485717;244;27658;-74
2021/07/12 11:34:45;;;;;;;2.90;2.60;;;;;;;;;;485698;244;27545;-74
2021/07/12 11:36:47;;;;;;;2.20;2.10;;;;;;;;;;485679;244;27531;-74
2021/07/12 11:38:49;;;;;;;2.33;2.23;;;;;;;;;;491865;240;27714;-72
2021/07/12 11:40:52;;;;;;;3.73;2.30;;;;;;;;;;494416;240;27420;-74
2021/07/12 11:42:54;;;;;;;2.23;2.10;;;;;;;;;;494394;240;27540;-74
2021/07/12 11:44:56;;;;;;;2.43;2.13;;;;;;;;;;494354;240;27497;-74
2021/07/12 11:46:58;;;;;;;2.30;2.20;;;;;;;;;;494388;240;27866;-74
2021/07/12 11:49:00;;;;;;;3.40;2.30;;;;;;;;;;494224;240;27791;-74
2021/07/12 11:51:02;;;;;;;2.30;2.20;;;;;;;;;;476167;239;27885;-74
2021/07/12 11:53:04;;;;;;;2.23;2.13;;;;;;;;;;473370;250;27589;-74
2021/07/12 11:55:06;;;;;;;2.87;2.20;;;;;;;;;;473392;249;27657;-75
2021/07/12 11:57:09;;;;;;;2.60;2.40;;;;;;;;;;473255;249;27601;-74
2021/07/12 11:59:32;;;;;;;2.77;2.57;;;;;;;;;;473565;249;27975;-74
2021/07/12 12:01:13;;;;;;;2.33;2.13;;;;;;;;;;457246;254;27516;-75
2021/07/12 12:03:17;;;;;;;2.20;2.10;;;;;;;;;;459329;257;28182;-74
2021/07/12 12:05:17;;;;;;;2.20;2.10;;;;;;;;;;459361;255;27489;-75
2021/07/12 12:07:19;;;;;;;4.50;2.30;;;;;;;;;;459519;257;28207;-74
2021/07/12 12:11:44;;;;;;;2.37;2.20;;;;;;;;;;462825;257;27730;-75
2021/07/12 12:13:45;;;;;;;2.33;2.23;;;;;;;;;;467083;254;27675;-74